• Join FlightAware (Why Join?)
  • Login
  • US Flag 
02:53AM EDT


 

Airport Tracker/Info


-or-


 

Live Flight TrackerFlight Track Log ✈ UAL5908 ✈ 03-Oct-2013 ✈ KDIK - KDEN

Flight Track Log - Related Links

Times and Time Zones

All times are in EDT time to prevent confusion due to time zone crossing. See the UAL5908 flight status page for this flight to view local times or setup timezone preferences in your user account.

Time Position Orientation Groundspeed Altitude Reporting Facility
EDT Latitude Longitude Course Direction KTS MPH feet Rate Location/Type
09:35AM 46.7397 -102.7772 180° South 197 227 33,000  Level Minneapolis Center
09:36AM 46.6778 -102.7864 186° South 221 254 6,300 -11,820 Descending Minneapolis Center
09:37AM 46.1970 -102.9823 184° South  Level Estimated
09:37AM 46.6044 -102.7908 182° South 241 277 8,600  Level Minneapolis Center
09:38AM 46.0969 -103.0120 184° South  Level Estimated
09:38AM 46.5158 -102.7986 183° South 257 296 10,900  Level Minneapolis Center
09:39AM 46.0049 -102.9930 172° South  Level FlightAware Approximate
09:39AM 46.4356 -102.8083 185° South 275 316 12,300  Level Minneapolis Center
09:40AM 45.9139 -103.0206 180° South  Level Estimated
09:40AM 46.3483 -102.8172 184° South 299 344 13,800  Level Minneapolis Center
09:41AM 46.2603 -102.8242 183° South 313 360 15,400 1,500 Climbing Minneapolis Center
09:42AM 46.1692 -102.8319 183° South 321 369 16,900 1,440 Climbing Minneapolis Center
09:43AM 46.0789 -102.8406 184° South 325 374 18,400 1,500 Climbing Minneapolis Center
09:44AM 45.9872 -102.8486 183° South 328 377 20,000 1,620 Climbing Minneapolis Center
09:45AM 45.8764 -102.8589 184° South 332 382 21,800 1,560 Climbing Minneapolis Center
09:46AM 45.7850 -102.8664 183° South 330 380 23,300 1,500 Climbing Minneapolis Center
09:47AM 45.6956 -102.8753 184° South 326 375 24,900 1,500 Climbing Minneapolis Center
09:48AM 45.6056 -102.8811 183° South 324 373 26,400 1,380 Climbing Minneapolis Center
09:49AM 45.5097 -102.8889 183° South 315 362 27,800 1,200 Climbing Minneapolis Center
09:50AM 45.4211 -102.8953 183° South 316 364 28,900 1,020 Climbing Minneapolis Center
09:51AM 45.3308 -102.9042 184° South 322 371 29,900 960 Climbing Minneapolis Center
09:52AM 45.2408 -102.9122 184° South 324 373 31,000 960 Climbing Minneapolis Center
09:53AM 45.1478 -102.9194 183° South 331 381 32,000 960 Climbing Minneapolis Center
09:54AM 45.0550 -102.9258 183° South 333 383 33,000 480 Climbing Minneapolis Center
09:55AM 44.9383 -102.9358 183° South 346 398 33,000  Level Minneapolis Center
09:57AM 44.8319 -102.9447 183° South 370 426 33,000  Level Minneapolis Center
09:57AM 44.7656 -102.9500 183° South 386 444 33,000  Level Denver Center
09:58AM 44.6539 -102.9583 183° South 397 457 33,000  Level Denver Center
09:59AM 44.5444 -102.9669 183° South 397 457 33,000  Level Denver Center
10:00AM 44.4350 -102.9761 183° South 395 455 33,000  Level Denver Center
10:01AM 44.3269 -102.9867 184° South 392 451 33,000  Level Denver Center
10:02AM 44.2192 -102.9922 182° South 389 448 33,000  Level Denver Center
10:03AM 44.0931 -103.0031 184° South 384 442 33,000  Level Denver Center
10:04AM 43.9908 -103.0111 183° South 384 442 33,000  Level Denver Center
10:05AM 43.8894 -103.0317 188° South 386 444 33,000  Level Denver Center
10:06AM 43.7717 -103.0608 190° South 385 443 33,000  Level Denver Center
10:07AM 43.6703 -103.0822 189° South 385 443 33,000  Level Denver Center
10:08AM 43.5522 -103.1089 189° South 384 442 33,000  Level Denver Center
10:09AM 43.4514 -103.1328 190° South 382 440 33,000  Level Denver Center
10:10AM 43.3333 -103.1597 189° South 382 440 33,000  Level Denver Center
10:12AM 43.2311 -103.1831 189° South 387 445 33,000  Level Denver Center
10:13AM 43.1294 -103.2064 190° South 387 445 33,000  Level Denver Center
10:14AM 43.0111 -103.2333 189° South 386 444 33,000  Level Denver Center
10:15AM 42.9086 -103.2567 189° South 387 445 33,000  Level Denver Center
10:16AM 42.7894 -103.2825 189° South 387 445 33,000  Level Denver Center
10:17AM 42.6858 -103.3058 189° South 390 449 33,000  Level Denver Center
10:18AM 42.5819 -103.3297 190° South 394 453 33,000 -480 Level Denver Center
10:19AM 42.4578 -103.3575 189° South 400 460 32,100 -540 Descending Denver Center
10:20AM 42.3478 -103.3817 189° South 411 473 32,000 -60 Descending Denver Center
10:21AM 42.2222 -103.4094 189° South 410 472 32,000  Level Denver Center
10:22AM 42.1144 -103.4342 190° South 409 471 32,000  Level Denver Center
10:23AM 41.9886 -103.4603 189° South 409 471 32,000  Level Denver Center
10:24AM 41.8811 -103.4836 189° South 408 470 32,000  Level Denver Center
10:25AM 41.7694 -103.4867 181° South 415 478 32,000  Level Denver Center
10:26AM 41.6403 -103.4889 181° South 417 480 32,000  Level Denver Center
10:27AM 41.5283 -103.4931 182° South 417 480 32,000  Level Denver Center
10:28AM 41.3986 -103.4961 181° South 417 480 32,000  Level Denver Center
10:29AM 41.2875 -103.4992 181° South 418 481 32,000  Level Denver Center
10:30AM 41.1564 -103.5031 181° South 420 483 32,000  Level Denver Center
10:31AM 41.0439 -103.5056 181° South 422 486 32,000 -540 Level Denver Center
10:32AM 40.9253 -103.5614 200° South 409 471 31,000 -1,500 Descending Denver Center
10:33AM 40.8275 -103.6225 205° Southwest 406 467 28,900 -2,280 Descending Denver Center
10:34AM 40.7217 -103.6894 206° Southwest 383 441 26,300 -2,280 Descending Denver Center
10:35AM 40.6378 -103.7431 206° Southwest 357 411 24,200 -2,280 Descending Denver Center
10:36AM 40.5403 -103.8028 205° Southwest 348 400 21,600 -2,280 Descending Denver Center
10:37AM 40.4611 -103.8617 210° Southwest 345 397 19,500 -1,980 Descending Denver Center
10:38AM 40.3975 -103.9519 227° Southwest 319 367 17,600 -1,620 Descending Denver Center
10:39AM 40.3342 -104.0389 226° Southwest 329 379 16,200 -1,500 Descending Denver Center
10:40AM 40.2622 -104.1422 228° Southwest 356 410 14,600 -1,440 Descending Denver Center
10:41AM 40.2425 -104.2689 259° West 355 409 13,300 -1,440 Descending Denver Center
10:42AM 40.2189 -104.3833 255° West 306 352 11,700 -1,500 Descending Denver Center
10:44AM 40.1947 -104.4731 251° West 273 314 10,300 -1,320 Descending Denver Center
10:45AM 40.1675 -104.5639 249° West 253 291 9,000 -1,080 Descending Denver Center
10:46AM 40.1056 -104.6122 211° Southwest 262 302 8,100 -540 Descending Denver Center
10:47AM 40.0389 -104.6553 206° Southwest 252 290 7,900 -600 Descending Denver Center
10:48AM 39.9797 -104.6831 200° South 218 251 6,900 -900 Descending Denver Center
10:49AM 39.9294 -104.6867 183° South 172 198 6,100 -780 Descending Denver Center
10:50AM 39.8917 -104.6869 180° South 152 175 5,400 -720 Descending Denver Center
10:52AM 39.8617 -104.6732 180° South  Level Estimated
10:59AM 39.8617 -104.6732 180° South  Level Estimated
11:00AM 39.8617 -104.6732 180° South  Level Estimated